Time;durP1;ratioP1;P1;durP2;ratioP2;P2;SDS_P1;SDS_P2;PMS_P1;PMS_P2;Temp;Humidity;BMP_temperature;BMP_pressure;BME280_temperature;BME280_humidity;BME280_pressure;Samples;Min_cycle;Max_cycle;Signal;HPM_P1;HPM_P2
2022/01/31 00:01:09;;;;;;;18.67;5.18;;;4.40;99.90;;;;;;5083636;28;20123;-60
2022/01/31 00:03:35;;;;;;;17.30;4.63;;;4.40;99.90;;;;;;5084063;28;20052;-60
2022/01/31 00:06:02;;;;;;;18.88;6.20;;;4.40;99.90;;;;;;5084288;28;20075;-60
2022/01/31 00:08:28;;;;;;;17.92;5.97;;;4.40;99.90;;;;;;5051192;28;20415;-60
2022/01/31 00:10:54;;;;;;;13.57;5.05;;;4.40;99.90;;;;;;5067475;28;20045;-60
2022/01/31 00:13:44;;;;;;;17.38;5.15;;;4.40;99.90;;;;;;5071847;28;20512;-60
2022/01/31 00:16:07;;;;;;;18.95;5.75;;;4.40;99.90;;;;;;5070845;28;20098;-60
2022/01/31 00:18:33;;;;;;;22.52;6.63;;;4.40;99.90;;;;;;5073267;28;20082;-60
2022/01/31 00:20:58;;;;;;;17.48;6.05;;;4.40;99.90;;;;;;5074979;28;20052;-60
2022/01/31 00:23:24;;;;;;;20.27;6.90;;;4.40;99.90;;;;;;5074657;28;20045;-60
2022/01/31 00:25:50;;;;;;;20.45;7.38;;;4.40;99.90;;;;;;5053993;28;20041;-60
2022/01/31 00:28:15;;;;;;;20.40;7.55;;;4.40;99.90;;;;;;5087297;28;20124;-60
2022/01/31 00:30:41;;;;;;;14.88;7.28;;;4.40;99.90;;;;;;5087275;28;20386;-60
2022/01/31 00:33:07;;;;;;;21.67;7.45;;;4.50;99.90;;;;;;5058502;28;20503;-60
2022/01/31 00:35:33;;;;;;;22.30;8.13;;;4.40;99.90;;;;;;5074291;28;20044;-60
2022/01/31 00:37:59;;;;;;;14.73;7.38;;;4.40;99.90;;;;;;5075353;28;20098;-60
2022/01/31 00:40:25;;;;;;;18.35;8.13;;;4.40;99.90;;;;;;5075673;28;20493;-60
2022/01/31 00:42:50;;;;;;;20.15;8.35;;;4.40;99.90;;;;;;5073307;28;20431;-60
2022/01/31 00:45:23;;;;;;;18.52;6.75;;;4.40;99.90;;;;;;5073141;28;20115;-60
2022/01/31 00:47:59;;;;;;;19.25;7.55;;;4.40;99.90;;;;;;5073374;28;20048;-60
2022/01/31 00:50:24;;;;;;;20.42;7.03;;;4.40;99.90;;;;;;5073020;28;20088;-60
2022/01/31 00:52:50;;;;;;;19.83;9.52;;;4.30;99.90;;;;;;5074774;28;20147;-60
2022/01/31 00:55:16;;;;;;;26.38;7.40;;;4.40;99.90;;;;;;5073632;28;20052;-60
2022/01/31 00:57:42;;;;;;;15.93;6.55;;;4.30;99.90;;;;;;5072622;28;20040;-60
2022/01/31 01:00:10;;;;;;;20.98;7.07;;;4.40;99.90;;;;;;5066355;28;20041;-60
2022/01/31 01:02:36;;;;;;;14.82;7.78;;;4.40;99.90;;;;;;5053349;28;20044;-60
2022/01/31 01:05:02;;;;;;;22.23;7.57;;;4.30;99.90;;;;;;5086247;28;20382;-60
2022/01/31 01:07:27;;;;;;;19.83;7.85;;;4.30;99.90;;;;;;5053446;28;20045;-60
2022/01/31 01:09:53;;;;;;;14.85;7.07;;;4.30;99.90;;;;;;5079984;28;20051;-60
2022/01/31 01:12:19;;;;;;;21.52;7.20;;;4.30;99.90;;;;;;5052857;28;20052;-60
2022/01/31 01:14:46;;;;;;;18.10;7.10;;;4.30;99.90;;;;;;5052531;28;20045;-60
2022/01/31 01:17:11;;;;;;;17.63;8.07;;;4.30;99.90;;;;;;5072807;28;20136;-60
2022/01/31 01:19:37;;;;;;;24.67;9.68;;;4.20;99.90;;;;;;5074304;28;20452;-60
2022/01/31 01:22:03;;;;;;;17.48;8.60;;;4.20;99.90;;;;;;5073448;28;20052;-60
2022/01/31 01:24:29;;;;;;;18.20;8.95;;;4.20;99.90;;;;;;5073478;28;20028;-60
2022/01/31 01:26:55;;;;;;;24.08;10.15;;;4.20;99.90;;;;;;5072875;28;20074;-60
2022/01/31 01:29:21;;;;;;;19.02;10.98;;;4.20;99.90;;;;;;5057230;28;20371;-60
2022/01/31 01:31:48;;;;;;;17.67;8.85;;;4.10;99.90;;;;;;5051600;28;20052;-60
2022/01/31 01:34:16;;;;;;;18.38;10.13;;;4.10;99.90;;;;;;5054571;28;20051;-60
2022/01/31 01:36:44;;;;;;;19.08;9.35;;;4.10;99.90;;;;;;5052585;28;20041;-60
2022/01/31 01:39:10;;;;;;;14.27;7.63;;;4.10;99.90;;;;;;5052672;28;20041;-60
2022/01/31 01:41:35;;;;;;;18.27;8.18;;;4.10;99.90;;;;;;5081866;28;20037;-60
2022/01/31 01:44:01;;;;;;;11.80;6.68;;;4.10;99.90;;;;;;5052957;28;20041;-60
2022/01/31 01:46:27;;;;;;;10.45;6.07;;;4.10;99.90;;;;;;5052073;28;20076;-60
2022/01/31 01:48:52;;;;;;;8.93;5.65;;;4.00;99.90;;;;;;5052655;28;20041;-61
2022/01/31 01:51:18;;;;;;;10.52;5.70;;;4.00;99.90;;;;;;5052651;28;20049;-60
2022/01/31 01:53:44;;;;;;;12.50;6.13;;;3.90;99.90;;;;;;5051502;28;20048;-60
2022/01/31 01:56:10;;;;;;;12.43;5.80;;;3.90;99.90;;;;;;5058835;28;20119;-61
2022/01/31 01:58:39;;;;;;;10.27;4.40;;;3.90;99.90;;;;;;5072319;28;20044;-61
2022/01/31 02:01:06;;;;;;;8.43;3.58;;;3.60;99.90;;;;;;5068908;28;20067;-60
2022/01/31 02:03:36;;;;;;;9.27;4.00;;;3.80;99.90;;;;;;5055952;28;20052;-60
2022/01/31 02:06:03;;;;;;;7.68;3.85;;;3.80;99.90;;;;;;5072240;28;20040;-60
2022/01/31 02:08:38;;;;;;;9.75;3.45;;;3.80;99.90;;;;;;5072659;28;20508;-60
2022/01/31 02:11:04;;;;;;;10.95;4.57;;;3.80;99.90;;;;;;5071045;28;20040;-60
2022/01/31 02:13:30;;;;;;;9.63;3.83;;;3.80;99.90;;;;;;5072622;28;20114;-61
2022/01/31 02:15:56;;;;;;;11.90;4.18;;;3.80;99.90;;;;;;5054008;28;20084;-60
2022/01/31 02:18:25;;;;;;;12.20;5.65;;;3.90;99.90;;;;;;5052319;28;20124;-60
2022/01/31 02:20:51;;;;;;;10.45;5.47;;;3.90;99.90;;;;;;5051264;28;20517;-60
2022/01/31 02:23:17;;;;;;;10.73;6.00;;;3.90;99.90;;;;;;5052294;28;20040;-60
2022/01/31 02:25:58;;;;;;;11.50;6.70;;;4.10;99.90;;;;;;5054191;28;20056;-60
2022/01/31 02:28:27;;;;;;;12.13;7.22;;;4.00;99.90;;;;;;5071600;28;20045;-60
2022/01/31 02:30:54;;;;;;;13.57;7.10;;;4.00;99.90;;;;;;5073060;28;20154;-60
2022/01/31 02:33:20;;;;;;;14.38;7.95;;;4.00;99.90;;;;;;5073247;28;20557;-60
2022/01/31 02:35:52;;;;;;;15.98;7.72;;;4.10;99.90;;;;;;5070577;28;20127;-60
2022/01/31 02:38:18;;;;;;;12.75;7.03;;;4.10;99.90;;;;;;5073439;28;20032;-60
2022/01/31 02:40:45;;;;;;;18.05;8.23;;;4.20;99.90;;;;;;5070705;28;20058;-60
2022/01/31 02:43:12;;;;;;;13.05;6.32;;;4.20;99.90;;;;;;5070206;28;20048;-60
2022/01/31 02:45:38;;;;;;;16.00;7.60;;;4.20;99.90;;;;;;5058465;28;20084;-60
2022/01/31 02:48:05;;;;;;;16.65;7.78;;;4.30;99.90;;;;;;5051453;28;20033;-60
2022/01/31 02:50:31;;;;;;;14.20;6.50;;;4.30;99.90;;;;;;5033786;28;20085;-60
2022/01/31 02:53:10;;;;;;;11.02;5.57;;;4.40;99.90;;;;;;5051522;28;20048;-60
2022/01/31 02:55:41;;;;;;;14.20;4.75;;;4.40;99.90;;;;;;5051583;28;20045;-60
2022/01/31 02:58:07;;;;;;;12.80;4.90;;;4.60;99.90;;;;;;5085203;28;20119;-60
2022/01/31 03:00:34;;;;;;;16.60;5.10;;;4.70;99.90;;;;;;5067235;28;20049;-60
2022/01/31 03:02:59;;;;;;;20.25;5.93;;;4.90;99.90;;;;;;5070514;28;20045;-60
2022/01/31 03:05:25;;;;;;;16.25;6.18;;;5.10;99.90;;;;;;5072932;28;20040;-60
2022/01/31 03:07:51;;;;;;;25.25;6.10;;;5.20;99.90;;;;;;5071154;28;20044;-60
2022/01/31 03:10:16;;;;;;;33.92;6.57;;;5.40;99.90;;;;;;5071693;28;20443;-60
2022/01/31 03:12:42;;;;;;;25.15;6.38;;;5.50;99.90;;;;;;5064711;28;20041;-61
2022/01/31 03:15:08;;;;;;;26.45;7.72;;;6.10;99.90;;;;;;5070634;28;20120;-61
2022/01/31 03:17:34;;;;;;;17.23;5.40;;;6.10;99.90;;;;;;5050367;28;20052;-61
2022/01/31 03:20:00;;;;;;;22.88;6.00;;;5.90;99.90;;;;;;5053376;28;20044;-60
2022/01/31 03:22:25;;;;;;;19.10;5.72;;;6.00;99.90;;;;;;5071301;28;20117;-60
2022/01/31 03:24:51;;;;;;;22.30;6.53;;;6.10;99.90;;;;;;5071257;28;20036;-60
2022/01/31 03:27:17;;;;;;;26.48;5.45;;;6.10;99.90;;;;;;5054520;28;20485;-60
2022/01/31 03:29:43;;;;;;;20.88;4.78;;;6.20;99.90;;;;;;5053818;28;20048;-60
2022/01/31 03:32:08;;;;;;;11.98;4.57;;;6.20;99.90;;;;;;5070790;28;20036;-60
2022/01/31 03:34:34;;;;;;;13.18;3.50;;;6.20;99.90;;;;;;5071733;28;20378;-60
2022/01/31 03:37:00;;;;;;;13.45;4.20;;;6.30;99.90;;;;;;5070865;28;20036;-60
2022/01/31 03:39:25;;;;;;;13.13;2.90;;;6.20;99.90;;;;;;5071425;28;20036;-60
2022/01/31 03:41:51;;;;;;;15.70;5.00;;;6.20;99.90;;;;;;5051598;28;20044;-60
2022/01/31 03:44:17;;;;;;;13.45;3.60;;;6.20;99.90;;;;;;5052077;28;20045;-60
2022/01/31 03:46:42;;;;;;;23.38;4.70;;;6.10;99.90;;;;;;5049916;28;20119;-60
2022/01/31 03:49:08;;;;;;;17.05;4.47;;;6.10;99.90;;;;;;5052213;28;20033;-60
2022/01/31 03:51:34;;;;;;;14.52;3.80;;;6.10;99.90;;;;;;5004766;28;20151;-60
2022/01/31 03:53:59;;;;;;;14.27;3.75;;;6.00;99.90;;;;;;4975644;28;20042;-60
2022/01/31 03:56:25;;;;;;;22.88;5.60;;;6.10;99.90;;;;;;4996311;28;20045;-60
2022/01/31 03:58:51;;;;;;;10.27;2.70;;;6.00;99.90;;;;;;5003497;28;20099;-60
2022/01/31 04:01:16;;;;;;;15.05;2.60;;;6.00;99.90;;;;;;4995583;28;20099;-60
2022/01/31 04:03:42;;;;;;;9.30;2.00;;;5.60;99.90;;;;;;4995853;28;20041;-60
2022/01/31 04:06:07;;;;;;;7.95;2.10;;;5.30;99.90;;;;;;4997733;28;20434;-60
2022/01/31 04:08:33;;;;;;;12.77;2.15;;;5.10;99.90;;;;;;5015536;28;20034;-60
2022/01/31 04:10:59;;;;;;;12.73;2.33;;;5.10;99.90;;;;;;5015208;28;20478;-60
2022/01/31 04:13:26;;;;;;;13.68;2.47;;;5.10;99.90;;;;;;5015098;28;20038;-60
2022/01/31 04:15:52;;;;;;;16.48;3.45;;;5.10;99.90;;;;;;4996015;28;20363;-60
2022/01/31 04:18:19;;;;;;;17.65;3.97;;;5.20;99.90;;;;;;5014269;28;20109;-60
2022/01/31 04:20:45;;;;;;;17.27;4.50;;;5.20;99.90;;;;;;4995214;28;20046;-60
2022/01/31 04:23:13;;;;;;;19.17;4.22;;;5.30;99.90;;;;;;5015893;28;20090;-60
2022/01/31 04:28:21;;;;;;;22.15;4.57;;;5.50;99.90;;;;;;4997369;28;20046;-60
2022/01/31 04:33:19;;;;;;;21.05;5.30;;;5.50;99.90;;;;;;4996089;28;20046;-60
2022/01/31 04:35:44;;;;;;;12.52;3.85;;;5.50;99.90;;;;;;4977455;28;20414;-60
2022/01/31 04:38:10;;;;;;;22.52;4.78;;;5.50;99.90;;;;;;4978615;28;20054;-60
2022/01/31 04:40:36;;;;;;;14.00;3.17;;;5.50;99.90;;;;;;4995922;28;20038;-60
2022/01/31 04:43:01;;;;;;;12.93;2.15;;;5.50;99.90;;;;;;5010346;28;20050;-60
2022/01/31 04:45:27;;;;;;;9.00;1.73;;;5.40;99.90;;;;;;4985506;28;20500;-60
2022/01/31 04:47:53;;;;;;;8.82;1.85;;;5.30;99.90;;;;;;5015247;28;20042;-60
2022/01/31 04:50:18;;;;;;;9.20;1.83;;;5.10;99.90;;;;;;5014318;28;20513;-60
2022/01/31 04:52:44;;;;;;;7.50;1.90;;;5.10;99.90;;;;;;5014981;28;20114;-60
2022/01/31 04:55:10;;;;;;;8.73;1.92;;;5.00;99.90;;;;;;4996826;28;20065;-60
2022/01/31 04:57:36;;;;;;;18.98;2.70;;;5.00;99.90;;;;;;4997282;28;20046;-60
2022/01/31 05:00:08;;;;;;;8.95;2.38;;;5.00;99.90;;;;;;4979002;28;20046;-60
2022/01/31 05:02:34;;;;;;;6.15;1.70;;;5.00;99.90;;;;;;4994671;28;20049;-60
2022/01/31 05:05:00;;;;;;;17.63;2.50;;;4.90;99.90;;;;;;5008137;28;20050;-60
2022/01/31 05:07:26;;;;;;;11.05;3.03;;;5.00;99.90;;;;;;4992119;28;20091;-60
2022/01/31 05:09:51;;;;;;;17.85;3.30;;;5.00;99.90;;;;;;5006663;28;20061;-60
2022/01/31 05:12:17;;;;;;;14.90;2.53;;;5.10;99.90;;;;;;5007723;28;20080;-60
2022/01/31 05:14:43;;;;;;;13.40;2.60;;;5.10;99.90;;;;;;4991879;28;20034;-60
2022/01/31 05:17:09;;;;;;;15.13;3.13;;;5.10;99.90;;;;;;4974594;28;20072;-60
2022/01/31 05:19:35;;;;;;;16.38;3.33;;;5.20;99.90;;;;;;4974503;28;20119;-60
2022/01/31 05:22:00;;;;;;;17.33;3.00;;;5.20;99.90;;;;;;4982202;28;20034;-60
2022/01/31 05:24:27;;;;;;;13.25;3.13;;;5.10;99.90;;;;;;4992885;28;20506;-60
2022/01/31 05:26:53;;;;;;;16.45;2.70;;;5.30;99.90;;;;;;4993950;28;20455;-60
2022/01/31 05:29:20;;;;;;;17.30;2.92;;;5.30;99.90;;;;;;5011641;28;20038;-60
2022/01/31 05:31:48;;;;;;;12.13;2.80;;;5.30;99.90;;;;;;4976242;28;20054;-60
2022/01/31 05:34:14;;;;;;;9.45;2.53;;;5.30;99.90;;;;;;4994082;28;20060;-60
2022/01/31 05:36:40;;;;;;;12.75;2.55;;;5.30;99.90;;;;;;5011156;28;20040;-60
2022/01/31 05:39:06;;;;;;;10.70;2.60;;;4.90;99.90;;;;;;4992824;28;20042;-60
2022/01/31 05:41:31;;;;;;;14.88;2.80;;;5.20;99.90;;;;;;4974662;28;20046;-60
2022/01/31 05:43:57;;;;;;;15.13;2.80;;;5.20;99.90;;;;;;5006921;28;20116;-60
2022/01/31 05:46:23;;;;;;;14.85;2.80;;;5.20;99.90;;;;;;4991116;28;20038;-60
2022/01/31 05:48:49;;;;;;;12.23;3.47;;;5.30;99.90;;;;;;4973931;28;20042;-60
2022/01/31 05:51:20;;;;;;;17.55;3.15;;;5.30;99.90;;;;;;4989538;28;20144;-60
2022/01/31 05:53:47;;;;;;;9.20;2.60;;;5.30;99.90;;;;;;4993478;28;20116;-60
2022/01/31 05:56:14;;;;;;;10.48;2.72;;;5.50;99.90;;;;;;4993937;28;20080;-60
2022/01/31 05:58:41;;;;;;;10.10;2.15;;;5.30;99.90;;;;;;4992420;28;20588;-60
2022/01/31 06:01:07;;;;;;;16.27;3.38;;;5.30;99.90;;;;;;4993715;28;20436;-60
2022/01/31 06:03:33;;;;;;;13.90;2.90;;;5.30;99.90;;;;;;4993568;28;20042;-60
2022/01/31 06:05:58;;;;;;;13.40;3.10;;;5.40;99.90;;;;;;4976632;28;20078;-60
2022/01/31 06:08:24;;;;;;;12.77;2.30;;;5.40;99.90;;;;;;5006720;28;20486;-60
2022/01/31 06:10:50;;;;;;;15.25;2.38;;;5.40;99.90;;;;;;5006150;28;20051;-60
2022/01/31 06:13:17;;;;;;;10.43;2.15;;;5.40;99.90;;;;;;4973368;28;20073;-60
2022/01/31 06:15:42;;;;;;;9.27;3.60;;;5.60;99.90;;;;;;4976387;28;20517;-60
2022/01/31 06:18:08;;;;;;;16.35;3.97;;;5.40;99.90;;;;;;5010861;28;20042;-61
2022/01/31 06:20:34;;;;;;;15.25;2.97;;;5.40;99.90;;;;;;4992377;28;20136;-61
2022/01/31 06:23:00;;;;;;;18.65;3.92;;;5.40;99.90;;;;;;4993355;28;20053;-60
2022/01/31 06:25:26;;;;;;;16.08;4.13;;;5.40;99.90;;;;;;4993414;28;20141;-60
2022/01/31 06:27:52;;;;;;;14.43;2.88;;;5.40;99.90;;;;;;4992412;28;20530;-61
2022/01/31 06:30:18;;;;;;;13.90;2.38;;;5.40;99.90;;;;;;4993151;28;20127;-61
2022/01/31 06:32:44;;;;;;;17.55;2.70;;;5.40;99.90;;;;;;5010125;28;20115;-61
2022/01/31 06:35:10;;;;;;;12.63;2.38;;;5.40;99.90;;;;;;4992425;28;20076;-60
2022/01/31 06:37:36;;;;;;;11.43;2.53;;;5.70;99.90;;;;;;4992111;28;20046;-61
2022/01/31 06:40:03;;;;;;;15.75;2.42;;;5.40;99.90;;;;;;4977025;28;20054;-61
2022/01/31 06:42:28;;;;;;;9.60;2.40;;;5.40;99.90;;;;;;4992108;28;20042;-61
2022/01/31 06:44:54;;;;;;;12.20;2.00;;;5.40;99.90;;;;;;4992895;28;20046;-60
2022/01/31 06:47:19;;;;;;;13.90;2.17;;;5.40;99.90;;;;;;4993298;28;20061;-61
2022/01/31 06:49:46;;;;;;;8.18;1.75;;;5.50;99.90;;;;;;4988304;28;20050;-60
2022/01/31 06:52:12;;;;;;;8.38;2.72;;;5.30;99.90;;;;;;4991097;28;20050;-60
2022/01/31 06:54:37;;;;;;;12.82;2.38;;;5.70;99.90;;;;;;4989699;28;20059;-60
2022/01/31 06:57:05;;;;;;;14.05;2.45;;;5.30;99.90;;;;;;4994604;28;20514;-61
2022/01/31 06:59:31;;;;;;;9.70;2.80;;;5.30;99.90;;;;;;5110274;28;20047;-60
2022/01/31 07:01:57;;;;;;;14.73;3.53;;;5.30;99.90;;;;;;5039749;28;20042;-60
2022/01/31 07:04:22;;;;;;;13.95;3.20;;;5.30;99.90;;;;;;4999197;28;20041;-60
2022/01/31 07:06:48;;;;;;;13.55;3.40;;;5.30;99.90;;;;;;5026805;28;20342;-60
2022/01/31 07:09:13;;;;;;;21.63;4.72;;;5.40;99.90;;;;;;5029458;28;20333;-60
2022/01/31 07:11:41;;;;;;;11.02;3.08;;;5.40;99.90;;;;;;5009636;28;20497;-60
2022/01/31 07:14:29;;;;;;;16.92;3.28;;;5.40;99.90;;;;;;4976428;28;20052;-61
2022/01/31 07:16:52;;;;;;;;;;;5.40;99.90;;;;;;4990992;28;20486;-61
2022/01/31 07:19:21;;;;;;;18.05;4.07;;;5.50;99.90;;;;;;4973881;28;19944;-61
2022/01/31 07:21:49;;;;;;;17.95;3.88;;;5.50;99.90;;;;;;4972640;28;20074;-60
2022/01/31 07:24:43;;;;;;;17.88;3.85;;;5.60;99.90;;;;;;4956072;28;20495;-61
2022/01/31 07:27:09;;;;;;;21.52;4.63;;;5.60;99.90;;;;;;4990349;28;20049;-61
2022/01/31 07:29:35;;;;;;;19.75;5.55;;;5.70;99.90;;;;;;4971721;28;20042;-61
2022/01/31 07:32:01;;;;;;;14.48;3.88;;;5.70;99.90;;;;;;4974905;28;20242;-60
2022/01/31 07:34:27;;;;;;;24.17;5.55;;;5.80;99.90;;;;;;4992658;28;20447;-60
2022/01/31 07:36:54;;;;;;;21.33;5.95;;;5.80;99.90;;;;;;4991414;28;20125;-60
2022/01/31 07:39:20;;;;;;;29.90;6.13;;;5.80;99.90;;;;;;4992059;28;20111;-60
2022/01/31 07:41:48;;;;;;;34.33;6.32;;;5.90;99.90;;;;;;4991633;28;20042;-60
2022/01/31 07:44:14;;;;;;;27.15;5.90;;;5.90;99.90;;;;;;4989646;28;20046;-60
2022/01/31 07:46:40;;;;;;;17.83;5.43;;;6.00;99.90;;;;;;4989692;28;20050;-60
2022/01/31 07:49:07;;;;;;;13.07;4.07;;;6.10;99.90;;;;;;4992217;28;20050;-60
2022/01/31 07:51:35;;;;;;;21.75;4.63;;;6.10;99.90;;;;;;4990027;28;20128;-60
2022/01/31 07:54:01;;;;;;;28.67;5.95;;;6.20;99.90;;;;;;4997907;28;20057;-60
2022/01/31 07:56:26;;;;;;;24.13;4.85;;;6.20;99.90;;;;;;4989694;28;20034;-60
2022/01/31 07:58:52;;;;;;;21.52;5.38;;;6.20;99.90;;;;;;5003812;28;20046;-60
2022/01/31 08:01:18;;;;;;;21.20;4.28;;;6.20;99.90;;;;;;4990129;28;20042;-60
2022/01/31 08:03:45;;;;;;;22.40;4.68;;;6.20;99.90;;;;;;4971818;28;20050;-60
2022/01/31 08:06:11;;;;;;;19.70;3.65;;;6.10;99.90;;;;;;4971795;28;20038;-60
2022/01/31 08:08:37;;;;;;;14.88;3.88;;;6.20;99.90;;;;;;4989478;28;20120;-60
2022/01/31 08:11:04;;;;;;;13.18;3.80;;;6.10;99.90;;;;;;4989634;28;20078;-60
2022/01/31 08:13:31;;;;;;;13.48;3.25;;;6.10;99.90;;;;;;4972344;28;20038;-60
2022/01/31 08:18:36;;;;;;;13.00;2.67;;;6.10;99.90;;;;;;4972497;28;20069;-60
2022/01/31 08:21:03;;;;;;;18.38;3.17;;;6.10;99.90;;;;;;4952682;28;20078;-60
2022/01/31 08:23:29;;;;;;;15.60;3.92;;;6.10;99.90;;;;;;4956980;28;20042;-60
2022/01/31 08:25:56;;;;;;;14.60;3.42;;;6.10;99.90;;;;;;4953501;28;20104;-60
2022/01/31 08:28:31;;;;;;;8.73;2.45;;;6.10;99.90;;;;;;4969382;28;20608;-60
2022/01/31 08:31:19;;;;;;;18.60;3.28;;;6.10;99.90;;;;;;5017653;28;20092;-60
2022/01/31 08:34:02;;;;;;;11.88;2.90;;;6.10;99.90;;;;;;5089954;28;20054;-60
2022/01/31 08:36:31;;;;;;;10.88;2.13;;;6.10;99.90;;;;;;4998830;28;20057;-60
2022/01/31 08:38:57;;;;;;;10.63;2.13;;;6.20;99.90;;;;;;5001955;28;20038;-60
2022/01/31 08:41:24;;;;;;;11.65;2.10;;;6.20;99.90;;;;;;5006535;28;20127;-60
2022/01/31 08:43:49;;;;;;;10.07;3.85;;;6.20;99.90;;;;;;5050735;28;20235;-60
2022/01/31 08:46:15;;;;;;;10.82;2.50;;;6.20;99.90;;;;;;4977637;28;20121;-60
2022/01/31 08:48:42;;;;;;;7.97;1.88;;;6.20;99.90;;;;;;5004716;28;20507;-60
2022/01/31 08:51:12;;;;;;;11.50;2.30;;;6.20;99.90;;;;;;4991868;28;20131;-60
2022/01/31 08:53:38;;;;;;;9.68;1.92;;;6.20;99.90;;;;;;4991381;28;20490;-60
2022/01/31 08:56:10;;;;;;;9.77;2.17;;;6.20;99.90;;;;;;4990969;28;20052;-60
2022/01/31 08:58:41;;;;;;;6.45;1.58;;;6.30;99.90;;;;;;4991088;28;20124;-61
2022/01/31 09:01:08;;;;;;;8.98;1.98;;;6.30;99.90;;;;;;4991871;28;20060;-60
2022/01/31 09:06:04;;;;;;;6.70;1.65;;;6.30;99.90;;;;;;5005200;28;20133;-60
2022/01/31 09:08:30;;;;;;;8.43;1.50;;;6.20;99.90;;;;;;4987069;28;20042;-61
2022/01/31 09:10:56;;;;;;;9.10;1.90;;;6.20;99.90;;;;;;4972044;28;20050;-60
2022/01/31 09:13:22;;;;;;;8.65;1.73;;;6.20;99.90;;;;;;5000949;28;20398;-60
2022/01/31 09:15:47;;;;;;;7.60;1.35;;;6.20;99.90;;;;;;4987866;28;20422;-60
2022/01/31 09:18:13;;;;;;;8.43;1.50;;;6.10;99.90;;;;;;5007010;28;20474;-60
2022/01/31 09:20:39;;;;;;;8.13;2.22;;;6.20;99.90;;;;;;5007881;28;20042;-60
2022/01/31 09:23:06;;;;;;;8.40;1.70;;;6.20;99.90;;;;;;5038667;28;20461;-60
2022/01/31 09:25:32;;;;;;;9.00;2.05;;;6.20;99.90;;;;;;5008400;28;20417;-60
2022/01/31 09:28:00;;;;;;;9.90;1.70;;;6.30;99.90;;;;;;5008254;28;20056;-60
2022/01/31 09:30:27;;;;;;;15.60;3.13;;;6.30;99.90;;;;;;5007719;28;20038;-60
2022/01/31 09:32:54;;;;;;;11.00;2.00;;;6.30;99.90;;;;;;5075954;28;20183;-60
2022/01/31 09:35:20;;;;;;;13.85;2.10;;;6.40;99.90;;;;;;5009107;28;20115;-60
2022/01/31 09:37:47;;;;;;;11.90;2.13;;;6.40;99.90;;;;;;5029304;28;20050;-60
2022/01/31 09:40:18;;;;;;;8.73;2.00;;;6.60;99.90;;;;;;5017061;28;20046;-60
2022/01/31 09:43:08;;;;;;;11.30;3.63;;;6.60;99.90;;;;;;5076563;28;20065;-61
2022/01/31 09:45:50;;;;;;;10.82;2.28;;;6.80;99.90;;;;;;5051336;28;20081;-60
2022/01/31 09:48:32;;;;;;;9.80;1.95;;;6.80;99.90;;;;;;4990802;28;20103;-60
2022/01/31 09:51:11;;;;;;;11.93;3.22;;;6.90;99.90;;;;;;5002227;28;20056;-60
2022/01/31 09:53:51;;;;;;;12.50;3.38;;;6.90;99.90;;;;;;5050370;28;20128;-60
2022/01/31 09:56:26;;;;;;;18.10;3.30;;;6.90;99.90;;;;;;5051546;28;20045;-60
2022/01/31 09:58:54;;;;;;;13.23;2.70;;;6.80;99.90;;;;;;5052820;28;20042;-60
2022/01/31 10:01:25;;;;;;;16.25;2.88;;;6.90;99.90;;;;;;5053999;28;20044;-60
2022/01/31 10:04:03;;;;;;;10.77;3.03;;;6.90;99.90;;;;;;5054173;28;20076;-60
2022/01/31 10:06:31;;;;;;;20.45;3.47;;;6.90;99.90;;;;;;5057295;28;20119;-60
2022/01/31 10:09:04;;;;;;;11.18;2.60;;;7.10;99.90;;;;;;5069813;28;20055;-60
2022/01/31 10:11:40;;;;;;;17.17;2.90;;;7.10;99.90;;;;;;5052810;28;20129;-60
2022/01/31 10:17:07;;;;;;;12.93;2.88;;;7.10;99.90;;;;;;5068481;28;20040;-60
2022/01/31 10:19:41;;;;;;;13.25;2.85;;;7.20;99.90;;;;;;5066378;28;20044;-60
2022/01/31 10:22:10;;;;;;;16.45;3.80;;;7.20;99.90;;;;;;5061537;28;20070;-60
2022/01/31 10:24:37;;;;;;;16.50;3.28;;;7.10;99.90;;;;;;5052834;28;20053;-60
2022/01/31 10:27:11;;;;;;;21.95;4.50;;;;;;;;;;5060495;28;20120;-60
2022/01/31 10:29:37;;;;;;;19.50;3.72;;;7.20;99.90;;;;;;5066608;28;20501;-60
2022/01/31 10:32:05;;;;;;;17.48;4.38;;;7.30;99.90;;;;;;5058099;28;20060;-60
2022/01/31 10:34:34;;;;;;;17.70;4.43;;;7.30;99.90;;;;;;5066540;28;20076;-60
2022/01/31 10:37:05;;;;;;;15.25;3.95;;;7.40;99.90;;;;;;5083120;28;20457;-60
2022/01/31 10:53:46;;;;;;;12.02;3.85;;;7.40;99.90;;;;;;5084233;28;20068;-60
2022/01/31 10:56:12;;;;;;;7.68;2.08;;;7.50;99.90;;;;;;5055876;28;20044;-60
2022/01/31 10:59:02;;;;;;;7.55;2.17;;;7.40;99.90;;;;;;5068975;28;20047;-60
2022/01/31 11:01:28;;;;;;;10.35;2.60;;;7.70;99.90;;;;;;5068519;28;20044;-60
2022/01/31 11:03:55;;;;;;;9.10;2.58;;;7.50;99.90;;;;;;5050586;28;20437;-60
2022/01/31 11:06:23;;;;;;;11.43;2.90;;;;;;;;;;5057902;28;20058;-60
2022/01/31 11:08:59;;;;;;;8.45;3.47;;;8.00;99.90;;;;;;5077580;28;20406;-60
2022/01/31 11:11:24;;;;;;;11.25;3.03;;;7.90;99.90;;;;;;5057170;28;20091;-60
2022/01/31 11:13:51;;;;;;;10.02;3.08;;;;;;;;;;5085749;28;20080;-60
2022/01/31 11:16:18;;;;;;;8.63;2.42;;;;;;;;;;5064652;28;20112;-60
2022/01/31 11:18:44;;;;;;;16.83;3.33;;;;;;;;;;5070907;28;20040;-60
2022/01/31 11:21:11;;;;;;;10.15;2.42;;;8.20;99.90;;;;;;5058995;28;20088;-60
2022/01/31 11:23:40;;;;;;;16.10;2.80;;;8.30;99.90;;;;;;5059946;28;20088;-60
2022/01/31 11:26:10;;;;;;;15.55;3.78;;;8.10;99.90;;;;;;5076583;28;20058;-60
2022/01/31 11:28:39;;;;;;;13.32;3.33;;;8.30;99.90;;;;;;5071074;28;20052;-60
2022/01/31 11:31:05;;;;;;;11.52;3.13;;;8.00;99.90;;;;;;5082286;28;20044;-60
2022/01/31 11:33:31;;;;;;;12.90;3.00;;;;;;;;;;5060275;28;20051;-60
2022/01/31 11:35:57;;;;;;;16.67;3.33;;;7.80;99.90;;;;;;5055305;28;20032;-60
2022/01/31 11:38:23;;;;;;;15.85;3.10;;;7.70;99.90;;;;;;5067867;28;20417;-61
2022/01/31 11:40:51;;;;;;;14.40;3.15;;;8.30;99.90;;;;;;5069799;28;20068;-60
2022/01/31 11:43:20;;;;;;;12.70;2.60;;;8.30;99.90;;;;;;5068717;28;20083;-60
2022/01/31 11:45:50;;;;;;;14.73;3.90;;;8.30;99.90;;;;;;5041108;28;20088;-60
2022/01/31 11:48:24;;;;;;;14.73;2.63;;;8.20;99.90;;;;;;5084870;28;20041;-61
2022/01/31 11:50:54;;;;;;;9.15;2.47;;;8.30;99.90;;;;;;5072217;28;20431;-60
2022/01/31 11:53:34;;;;;;;10.98;3.28;;;8.10;99.90;;;;;;5036303;28;20132;-60
2022/01/31 11:56:09;;;;;;;13.70;2.55;;;8.20;99.90;;;;;;5052920;28;20148;-60
2022/01/31 11:58:43;;;;;;;15.55;3.92;;;8.20;99.90;;;;;;5059565;28;20102;-60
2022/01/31 12:01:08;;;;;;;16.92;3.05;;;8.20;99.90;;;;;;5070649;28;20051;-60
2022/01/31 12:03:35;;;;;;;12.95;3.15;;;8.10;99.90;;;;;;5069774;28;20036;-60
2022/01/31 12:06:09;;;;;;;14.15;3.08;;;8.20;99.90;;;;;;5069886;28;20048;-60
2022/01/31 12:08:38;;;;;;;10.27;2.55;;;8.10;99.90;;;;;;5070595;28;20041;-60
2022/01/31 12:11:16;;;;;;;12.38;2.65;;;8.10;99.90;;;;;;5071811;28;20098;-60
2022/01/31 12:13:49;;;;;;;16.83;3.20;;;8.00;99.90;;;;;;5070183;28;20070;-60
2022/01/31 12:17:08;;;;;;;18.40;3.53;;;8.20;99.90;;;;;;5076113;28;20041;-60
2022/01/31 12:19:32;;;;;;;17.35;3.45;;;8.10;99.90;;;;;;5073456;28;20393;-60
2022/01/31 12:22:02;;;;;;;11.50;3.08;;;7.90;99.90;;;;;;5074445;28;20056;-60
2022/01/31 12:24:39;;;;;;;13.98;3.22;;;8.00;99.90;;;;;;5075591;28;20109;-60
2022/01/31 12:27:13;;;;;;;18.88;4.63;;;8.10;99.90;;;;;;5057192;28;20045;-60
2022/01/31 12:29:43;;;;;;;18.52;4.03;;;8.10;99.90;;;;;;5057178;28;20044;-60
2022/01/31 12:32:10;;;;;;;21.27;3.25;;;8.10;99.90;;;;;;5074501;28;20041;-60
2022/01/31 12:34:39;;;;;;;17.95;5.38;;;8.00;99.90;;;;;;5073628;28;20044;-60
2022/01/31 12:37:18;;;;;;;18.67;3.45;;;7.90;99.90;;;;;;5074764;28;20048;-60
2022/01/31 12:39:58;;;;;;;15.88;3.17;;;8.10;99.90;;;;;;5074175;28;20504;-60
2022/01/31 12:42:50;;;;;;;25.20;5.95;;;8.00;99.90;;;;;;5075832;28;20049;-60
2022/01/31 12:45:27;;;;;;;22.88;4.95;;;8.10;99.90;;;;;;5074672;28;20049;-60
2022/01/31 12:48:16;;;;;;;14.50;3.67;;;8.10;99.90;;;;;;5073111;28;20041;-60
2022/01/31 12:50:51;;;;;;;15.30;4.57;;;8.10;99.90;;;;;;5081440;28;20059;-60
2022/01/31 12:53:23;;;;;;;21.48;5.60;;;8.10;99.90;;;;;;5094272;28;20050;-60
2022/01/31 12:56:05;;;;;;;18.13;5.07;;;8.10;99.90;;;;;;5094029;28;20051;-60
2022/01/31 12:58:41;;;;;;;24.15;4.53;;;8.00;99.90;;;;;;5093931;28;20043;-60
2022/01/31 13:01:10;;;;;;;15.18;4.28;;;8.90;99.90;;;;;;5076639;28;20509;-60
2022/01/31 13:03:37;;;;;;;22.92;5.28;;;8.00;99.90;;;;;;5093568;28;20089;-60
2022/01/31 13:06:03;;;;;;;17.60;4.93;;;8.10;99.90;;;;;;5095459;28;20070;-60
2022/01/31 13:08:29;;;;;;;14.82;3.83;;;7.90;99.90;;;;;;5076082;28;20047;-60
2022/01/31 13:10:55;;;;;;;19.45;4.63;;;8.00;99.90;;;;;;5093494;28;20515;-60
2022/01/31 13:13:39;;;;;;;21.13;4.90;;;8.00;99.90;;;;;;5095444;28;20036;-60
2022/01/31 13:16:10;;;;;;;20.73;4.60;;;8.00;99.90;;;;;;5076346;28;20094;-60
2022/01/31 13:18:36;;;;;;;20.90;5.45;;;7.90;99.90;;;;;;5093097;28;20580;-60
2022/01/31 13:21:06;;;;;;;20.90;4.25;;;7.90;99.90;;;;;;5093923;28;20127;-60
2022/01/31 13:23:33;;;;;;;21.17;5.50;;;7.90;99.90;;;;;;5092829;28;20485;-60